»·PEaware :: N343GE KSBA-KBUR

N343GE :: KSBA-KBUR

FLIGHT INFORMATION

Flight Status: Arrived
Operator: Privately registered:
United States
More flights under this callsign
Pilot: Hyatt B. (30410)
Aircraft: PIPER PA-28 CHEROKEE ARCHER
(PA28)
More flights by this aircraft type
Origin: KSBA Santa Barbara Mun
United States
Destination: KBUR Bob Hope-Burbank
United States
More flights between these airports :: More routes between these airports
Route: +
File this flight plan on PilotEdge
Remarks:
Altitude:
(Current/Filed)
7,500ft
Speed:
(Current/Filed)
110kts
Departed: 20-Jul-20 09:16 AM
Arrived: 20-Jul-20 10:08 AM
Distance/Time
Traveled:
75nm/0:52
Distance/Time
To Go:
Arrived

Flight Plot

Page will automatically refresh every two minutes.


Map Options




Map Legend


Flown Route
Filed Route
Departure Airport
Arrival Airport
Navaid (VOR, NDB)
Fix

Horizontal Profiles

Position Reports

Time Latitude Longitude Heading Altitude Ground
Speed
20-Jul-20 08:44 34.423038 -119.836180 344 11ft 0kts
20-Jul-20 08:45 34.423038 -119.836180 344 11ft 0kts
20-Jul-20 08:46 34.423038 -119.836180 344 11ft 0kts
20-Jul-20 08:47 34.423038 -119.836180 344 11ft 0kts
20-Jul-20 08:48 34.423038 -119.836180 344 11ft 0kts
20-Jul-20 08:49 34.423038 -119.836180 344 11ft 0kts
20-Jul-20 08:50 34.423038 -119.836180 344 11ft 0kts
20-Jul-20 08:51 34.423038 -119.836180 344 11ft 0kts
20-Jul-20 08:52 34.423038 -119.836180 344 11ft 0kts
20-Jul-20 08:53 34.423038 -119.836180 344 11ft 0kts
20-Jul-20 08:54 34.423038 -119.836180 344 11ft 0kts
20-Jul-20 08:55 34.423038 -119.836180 344 11ft 0kts
20-Jul-20 08:56 34.423038 -119.836180 344 11ft 0kts
20-Jul-20 08:57 34.423038 -119.836180 344 11ft 0kts
20-Jul-20 08:58 34.423038 -119.836180 344 11ft 0kts
20-Jul-20 08:59 34.423038 -119.836180 344 11ft 0kts
20-Jul-20 09:00 34.423038 -119.836180 344 11ft 0kts
20-Jul-20 09:01 34.423038 -119.836180 344 11ft 0kts
20-Jul-20 09:02 34.423038 -119.836180 344 11ft 0kts
20-Jul-20 09:03 34.423038 -119.836180 344 11ft 0kts
20-Jul-20 09:04 34.423038 -119.836180 344 11ft 0kts
20-Jul-20 09:05 34.423038 -119.836180 344 11ft 0kts
20-Jul-20 09:06 34.423038 -119.836180 344 11ft 0kts
20-Jul-20 09:07 34.423038 -119.836180 344 11ft 0kts
20-Jul-20 09:08 34.423038 -119.836180 344 11ft 0kts
20-Jul-20 09:09 34.423038 -119.836180 344 11ft 0kts
20-Jul-20 09:10 34.423038 -119.836180 344 11ft 0kts
20-Jul-20 09:11 34.423372 -119.837285 328 11ft 7kts
20-Jul-20 09:12 34.426032 -119.838139 345 11ft 11kts
20-Jul-20 09:13 34.426744 -119.835785 89 14ft 6kts
20-Jul-20 09:14 34.427101 -119.835246 357 15ft 1kts
20-Jul-20 09:15 34.427777 -119.840535 268 18ft 73kts
20-Jul-20 09:16 34.426531 -119.869722 266 691ft 94kts
20-Jul-20 09:17 34.425071 -119.901992 266 1294ft 96kts
20-Jul-20 09:18 34.418087 -119.930921 194 1894ft 93kts
20-Jul-20 09:19 34.392859 -119.929155 174 2485ft 98kts
20-Jul-20 09:20 34.369743 -119.915992 104 3097ft 101kts
20-Jul-20 09:21 34.368145 -119.881745 91 3699ft 103kts
20-Jul-20 09:22 34.367227 -119.846961 91 4299ft 102kts
20-Jul-20 09:23 34.366332 -119.812748 91 4896ft 100kts
20-Jul-20 09:24 34.365477 -119.779618 91 5490ft 96kts
20-Jul-20 09:25 34.364685 -119.748102 91 6080ft 91kts
20-Jul-20 09:26 34.363981 -119.718741 91 6666ft 83kts
20-Jul-20 09:27 34.363387 -119.691994 91 7168ft 80kts
20-Jul-20 09:28 34.362698 -119.663201 91 7480ft 98kts
20-Jul-20 09:29 34.361621 -119.624570 91 7474ft 124kts
20-Jul-20 09:30 34.360490 -119.582861 91 7471ft 122kts
20-Jul-20 09:31 34.359390 -119.541852 91 7472ft 121kts
20-Jul-20 09:32 34.358380 -119.504060 91 7472ft 120kts
20-Jul-20 09:33 34.357301 -119.463496 91 7472ft 120kts
20-Jul-20 09:34 34.356228 -119.422951 91 7472ft 120kts
20-Jul-20 09:35 34.353581 -119.382113 97 7444ft 121kts
20-Jul-20 09:36 34.348375 -119.341781 100 7445ft 121kts
20-Jul-20 09:37 34.342511 -119.301666 100 7445ft 121kts
20-Jul-20 09:38 34.336671 -119.261684 100 7445ft 121kts
20-Jul-20 09:39 34.337039 -119.221165 83 7445ft 121kts
20-Jul-20 09:41 34.341126 -119.180770 82 7445ft 121kts
20-Jul-20 09:42 34.345217 -119.140405 82 7445ft 121kts
20-Jul-20 09:43 34.349320 -119.099968 82 7445ft 121kts
20-Jul-20 09:44 34.353426 -119.059555 82 7445ft 121kts
20-Jul-20 09:45 34.357546 -119.019055 82 7445ft 121kts
20-Jul-20 09:46 34.361664 -118.978619 82 7445ft 121kts
20-Jul-20 09:47 34.365782 -118.938236 82 7445ft 121kts
20-Jul-20 09:48 34.369905 -118.897877 82 7463ft 120kts
20-Jul-20 09:49 34.371225 -118.857376 93 7463ft 121kts
20-Jul-20 09:50 34.368672 -118.816564 94 7463ft 121kts
20-Jul-20 09:51 34.365779 -118.775844 94 7463ft 121kts
20-Jul-20 09:52 34.362896 -118.735192 94 7463ft 121kts
20-Jul-20 09:53 34.360023 -118.694583 94 7463ft 121kts
20-Jul-20 09:54 34.357138 -118.653734 94 7463ft 121kts
20-Jul-20 09:55 34.354271 -118.613059 94 7463ft 121kts
20-Jul-20 09:56 34.351421 -118.572527 94 7463ft 121kts
20-Jul-20 09:56 34.349064 -118.538993 94 7372ft 116kts
20-Jul-20 09:58 34.344232 -118.496804 100 6894ft 102kts
20-Jul-20 09:59 34.338865 -118.462887 100 6208ft 105kts
20-Jul-20 09:59 34.333618 -118.434410 102 5370ft 102kts
20-Jul-20 10:01 34.326278 -118.395646 106 4199ft 101kts
20-Jul-20 10:02 34.307398 -118.372926 142 3371ft 85kts
20-Jul-20 10:02 34.292437 -118.359665 170 2769ft 82kts
20-Jul-20 10:03 34.269292 -118.360301 203 2379ft 91kts
20-Jul-20 10:05 34.240567 -118.368153 173 1797ft 83kts
20-Jul-20 10:05 34.221983 -118.363189 166 1152ft 77kts
20-Jul-20 10:06 34.204157 -118.358229 166 735ft 51kts
20-Jul-20 10:07 34.196994 -118.356459 219 713ft 6kts
20-Jul-20 10:08 34.196775 -118.357049 269 715ft 4kts
20-Jul-20 10:09 34.195231 -118.358214 203 713ft 9kts
20-Jul-20 10:10 34.195033 -118.358349 209 713ft 0kts
20-Jul-20 10:11 34.195033 -118.358349 209 713ft 0kts
20-Jul-20 10:12 34.195033 -118.358349 209 713ft 0kts
20-Jul-20 10:13 34.195033 -118.358349 209 713ft 0kts
20-Jul-20 10:14 34.195033 -118.358349 209 713ft 0kts
20-Jul-20 10:15 34.195033 -118.358349 209 713ft 0kts
20-Jul-20 10:16 34.195033 -118.358349 209 713ft 0kts
20-Jul-20 10:17 34.195033 -118.358349 209 713ft 0kts
20-Jul-20 10:18 34.195033 -118.358349 209 713ft 0kts
20-Jul-20 10:19 34.195033 -118.358349 209 713ft 0kts
20-Jul-20 10:20 34.195033 -118.358349 209 713ft 0kts
20-Jul-20 10:21 34.195033 -118.358349 209 713ft 0kts

Navigation Log

Ident Type
Flight plan parsing failed, navigation log unavailable